Time;durP1;ratioP1;P1;durP2;ratioP2;P2;SDS_P1;SDS_P2;PMS_P1;PMS_P2;Temp;Humidity;BMP_temperature;BMP_pressure;BME280_temperature;BME280_humidity;BME280_pressure;Samples;Min_cycle;Max_cycle;Signal;HPM_P1;HPM_P2
2021/03/06 00:00:31;;;;;;;8.32;6.15;;;0.30;74.90;;;;;;5173014;28;20525;-64
2021/03/06 00:03:02;;;;;;;8.48;6.63;;;0.30;74.30;;;;;;5177498;28;20041;-65
2021/03/06 00:05:34;;;;;;;8.68;6.88;;;0.30;74.50;;;;;;5174519;28;20049;-64
2021/03/06 00:08:06;;;;;;;8.25;6.72;;;0.30;74.30;;;;;;5176772;28;20046;-64
2021/03/06 00:10:37;;;;;;;9.57;6.82;;;0.20;74.60;;;;;;5176273;28;20129;-65
2021/03/06 00:13:09;;;;;;;9.68;7.00;;;0.20;74.60;;;;;;5175138;28;20073;-65
2021/03/06 00:15:40;;;;;;;9.32;7.22;;;0.10;75.30;;;;;;5176786;28;20581;-65
2021/03/06 00:18:12;;;;;;;9.18;6.82;;;0.10;75.60;;;;;;5177002;28;20475;-64
2021/03/06 00:20:43;;;;;;;8.35;6.60;;;0.00;75.90;;;;;;5175873;28;20037;-65
2021/03/06 00:23:15;;;;;;;10.30;7.20;;;0.10;75.20;;;;;;5176578;28;20220;-65
2021/03/06 00:25:46;;;;;;;9.40;6.90;;;0.00;75.70;;;;;;5175813;28;20470;-65
2021/03/06 00:28:18;;;;;;;9.75;7.68;;;-0.10;75.20;;;;;;5176081;28;20125;-66
2021/03/06 00:30:49;;;;;;;9.30;6.80;;;-0.10;75.20;;;;;;5175000;28;20042;-65
2021/03/06 00:33:21;;;;;;;8.90;7.28;;;-0.10;75.60;;;;;;5176980;28;20042;-64
2021/03/06 00:35:53;;;;;;;9.52;7.38;;;-0.10;75.30;;;;;;5175528;28;20053;-65
2021/03/06 00:38:24;;;;;;;9.10;7.05;;;-0.10;75.10;;;;;;5177136;28;20601;-65
2021/03/06 00:40:56;;;;;;;8.88;7.22;;;-0.10;74.80;;;;;;5176992;28;20387;-64
2021/03/06 00:43:28;;;;;;;10.35;7.13;;;-0.10;75.30;;;;;;5175302;28;20100;-64
2021/03/06 00:45:59;;;;;;;9.75;7.55;;;-0.10;75.30;;;;;;5176305;28;20042;-65
2021/03/06 00:48:31;;;;;;;9.02;6.70;;;-0.10;75.30;;;;;;5175428;28;20124;-67
2021/03/06 00:51:06;;;;;;;9.98;7.43;;;-0.10;74.90;;;;;;5153079;28;20053;-65
2021/03/06 00:53:38;;;;;;;10.13;7.63;;;-0.10;75.10;;;;;;5168658;28;20038;-65
2021/03/06 00:56:10;;;;;;;10.30;7.93;;;-0.10;75.20;;;;;;5174534;28;20049;-64
2021/03/06 00:58:42;;;;;;;9.77;7.07;;;-0.20;74.70;;;;;;5176755;28;20041;-64
2021/03/06 01:01:14;;;;;;;10.60;7.43;;;-0.20;74.40;;;;;;5175107;28;20038;-64
2021/03/06 01:03:45;;;;;;;9.40;7.00;;;-0.20;74.40;;;;;;5175511;28;20072;-64
2021/03/06 01:06:17;;;;;;;9.57;7.28;;;-0.30;74.10;;;;;;5175817;28;20116;-64
2021/03/06 01:08:49;;;;;;;10.07;7.88;;;-0.40;74.10;;;;;;5174100;28;20139;-65
2021/03/06 01:11:21;;;;;;;9.75;8.00;;;-0.60;75.70;;;;;;5174785;28;20050;-64
2021/03/06 01:13:52;;;;;;;9.15;7.10;;;-0.70;75.40;;;;;;5175043;28;20065;-64
2021/03/06 01:16:24;;;;;;;9.73;7.15;;;-0.80;76.20;;;;;;5175890;28;20068;-64
2021/03/06 01:18:57;;;;;;;10.30;7.63;;;-0.90;76.20;;;;;;5174592;28;20073;-64
2021/03/06 01:21:28;;;;;;;9.95;7.82;;;-0.90;77.10;;;;;;5178075;28;20123;-66
2021/03/06 01:24:00;;;;;;;10.60;7.13;;;-1.00;77.00;;;;;;5176636;28;20049;-64
2021/03/06 01:26:32;;;;;;;10.43;7.13;;;-1.10;77.80;;;;;;5175364;28;20152;-64
2021/03/06 01:29:04;;;;;;;9.15;6.90;;;-1.20;77.80;;;;;;5174225;28;20132;-64
2021/03/06 01:31:35;;;;;;;9.98;7.28;;;-1.20;77.70;;;;;;5174741;28;20081;-65
2021/03/06 01:34:07;;;;;;;9.38;7.15;;;-1.30;77.50;;;;;;5175076;28;20038;-65
2021/03/06 01:36:38;;;;;;;8.95;6.72;;;-1.30;77.10;;;;;;5175198;28;20069;-64
2021/03/06 01:39:09;;;;;;;9.32;7.35;;;-1.40;77.80;;;;;;5174558;28;20490;-64
2021/03/06 01:41:41;;;;;;;9.05;6.93;;;-1.40;77.30;;;;;;5173923;28;20038;-64
2021/03/06 01:44:12;;;;;;;9.43;7.13;;;-1.40;77.30;;;;;;5174666;28;20509;-65
2021/03/06 01:46:43;;;;;;;9.05;6.63;;;-1.40;77.00;;;;;;5174792;28;20045;-64
2021/03/06 01:49:15;;;;;;;8.90;6.57;;;-1.40;77.30;;;;;;5174925;28;20046;-66
2021/03/06 01:51:47;;;;;;;8.98;6.72;;;-1.40;77.30;;;;;;5172313;28;20049;-65
2021/03/06 01:54:22;;;;;;;7.97;5.93;;;-1.40;77.50;;;;;;5176723;28;20704;-64
2021/03/06 01:56:53;;;;;;;9.38;6.93;;;-1.30;77.50;;;;;;5176283;28;20157;-63
2021/03/06 01:59:25;;;;;;;8.93;6.85;;;-1.30;77.50;;;;;;5176852;28;20042;-64
2021/03/06 02:01:57;;;;;;;9.65;7.25;;;-1.30;78.10;;;;;;5172026;28;20065;-64
2021/03/06 02:04:28;;;;;;;9.93;6.72;;;-1.40;77.90;;;;;;5173251;28;20104;-64
2021/03/06 02:07:03;;;;;;;9.02;6.43;;;-1.40;77.80;;;;;;5174027;28;20064;-64
2021/03/06 02:09:34;;;;;;;9.38;6.70;;;-1.40;78.10;;;;;;5175256;28;20493;-64
2021/03/06 02:12:23;;;;;;;9.25;6.43;;;-1.50;78.00;;;;;;5174609;28;20049;-63
2021/03/06 02:15:03;;;;;;;8.90;6.35;;;-1.50;78.00;;;;;;5175482;28;20566;-65
2021/03/06 02:18:08;;;;;;;9.25;6.82;;;-1.50;78.10;;;;;;5174223;28;20155;-64
2021/03/06 02:20:58;;;;;;;8.85;6.53;;;-1.60;77.80;;;;;;5174840;28;20044;-64
2021/03/06 02:23:53;;;;;;;10.48;7.25;;;-1.50;77.80;;;;;;5175237;28;20519;-65
2021/03/06 02:26:54;;;;;;;9.90;7.72;;;-1.50;77.50;;;;;;5174691;28;20045;-64
2021/03/06 02:29:42;;;;;;;9.27;6.80;;;-1.50;77.80;;;;;;5174718;28;20100;-64
2021/03/06 02:32:21;;;;;;;8.65;6.70;;;-1.50;77.50;;;;;;5173911;28;20147;-64
2021/03/06 02:38:07;;;;;;;9.77;6.90;;;-1.40;77.50;;;;;;5618098;23;20117;-67
2021/03/06 02:40:40;;;;;;;10.85;7.82;;;-1.40;77.40;;;;;;5049532;29;20140;-65
2021/03/06 02:43:13;;;;;;;11.50;8.30;;;-1.30;77.60;;;;;;5070617;29;20084;-65
2021/03/06 02:45:45;;;;;;;11.38;8.35;;;-1.40;77.90;;;;;;5067388;29;20115;-65
2021/03/06 02:48:18;;;;;;;9.57;6.97;;;-1.30;78.10;;;;;;5067080;29;20492;-65
2021/03/06 02:50:54;;;;;;;10.15;7.43;;;-1.40;77.40;;;;;;5070656;29;20044;-66
2021/03/06 02:53:26;;;;;;;10.05;7.32;;;-1.50;78.10;;;;;;5070888;29;20113;-65
2021/03/06 02:55:57;;;;;;;9.85;7.03;;;-1.60;78.90;;;;;;5070113;29;20135;-64
2021/03/06 02:58:55;;;;;;;11.02;6.88;;;-1.60;79.10;;;;;;5071672;29;20064;-64
2021/03/06 03:01:50;;;;;;;11.77;7.85;;;-1.80;79.10;;;;;;5068608;29;20111;-64
2021/03/06 03:04:57;;;;;;;10.20;7.35;;;-1.80;79.10;;;;;;5062536;29;20139;-64
2021/03/06 03:07:41;;;;;;;9.80;7.30;;;-1.90;79.00;;;;;;5077476;29;20204;-64
2021/03/06 03:10:14;;;;;;;11.25;7.10;;;-1.90;78.90;;;;;;5075175;29;20072;-65
2021/03/06 03:13:01;;;;;;;10.85;6.93;;;-1.90;78.70;;;;;;5075070;29;20040;-64
2021/03/06 03:15:39;;;;;;;10.00;7.18;;;-2.00;78.40;;;;;;5071171;29;20116;-65
2021/03/06 03:18:24;;;;;;;10.15;7.32;;;-1.90;79.10;;;;;;5072623;29;20131;-65
2021/03/06 03:20:59;;;;;;;9.85;7.15;;;-1.90;78.80;;;;;;5070395;29;20055;-65
2021/03/06 03:23:41;;;;;;;10.75;7.25;;;-1.80;78.40;;;;;;5077501;29;20100;-65
2021/03/06 03:26:15;;;;;;;9.95;6.43;;;-1.80;78.10;;;;;;5075586;29;20131;-65
2021/03/06 03:28:49;;;;;;;10.02;7.43;;;-1.80;77.80;;;;;;5077175;29;20123;-65
2021/03/06 03:31:23;;;;;;;10.77;7.13;;;-1.70;77.90;;;;;;5076896;29;20135;-65
2021/03/06 03:33:55;;;;;;;9.65;6.47;;;-1.70;77.70;;;;;;5072998;29;20079;-65
2021/03/06 03:36:27;;;;;;;9.65;6.75;;;-1.70;77.40;;;;;;5068169;29;20092;-65
2021/03/06 03:38:59;;;;;;;10.13;7.20;;;-1.60;76.80;;;;;;5069678;29;20143;-65
2021/03/06 03:41:31;;;;;;;11.00;7.35;;;-1.50;76.50;;;;;;5069243;29;20048;-65
2021/03/06 03:44:04;;;;;;;9.55;7.10;;;-1.50;76.40;;;;;;5070050;29;20147;-65
2021/03/06 03:46:39;;;;;;;9.85;7.10;;;-1.50;76.40;;;;;;5072199;29;20680;-65
2021/03/06 03:49:16;;;;;;;11.95;7.22;;;-1.40;76.20;;;;;;5073574;29;20047;-65
2021/03/06 03:51:48;;;;;;;9.98;7.10;;;-1.40;75.90;;;;;;5069100;29;20064;-65
2021/03/06 03:54:20;;;;;;;10.40;7.25;;;-1.40;75.70;;;;;;5072212;29;20127;-64
2021/03/06 03:56:52;;;;;;;9.85;7.13;;;-1.40;75.60;;;;;;5071272;29;20048;-65
2021/03/06 03:59:23;;;;;;;10.88;7.47;;;-1.40;75.40;;;;;;5071188;29;20099;-65
2021/03/06 04:01:54;;;;;;;9.70;7.20;;;-1.40;75.60;;;;;;5056010;29;20115;-66
2021/03/06 04:04:26;;;;;;;9.40;6.95;;;-1.40;75.40;;;;;;5076674;29;20579;-65
2021/03/06 04:06:59;;;;;;;9.80;7.03;;;-1.40;75.10;;;;;;5063144;29;20191;-64
2021/03/06 04:09:31;;;;;;;8.32;5.97;;;-1.50;76.50;;;;;;5067339;29;20100;-64
2021/03/06 04:12:02;;;;;;;9.43;6.70;;;-1.50;75.40;;;;;;5075421;29;20044;-64
2021/03/06 04:14:34;;;;;;;8.77;6.25;;;-1.50;75.30;;;;;;5068298;29;20715;-64
2021/03/06 04:17:05;;;;;;;10.23;6.25;;;-1.60;75.70;;;;;;5075792;29;20048;-63
2021/03/06 04:19:37;;;;;;;8.68;6.40;;;-1.60;75.60;;;;;;5073052;29;20628;-64
2021/03/06 04:22:08;;;;;;;12.40;6.95;;;-1.70;76.30;;;;;;5074350;29;20123;-64
2021/03/06 04:24:40;;;;;;;12.85;9.35;;;-1.70;76.50;;;;;;5069938;29;20048;-63
2021/03/06 04:27:11;;;;;;;18.38;11.77;;;-1.80;77.30;;;;;;5072902;29;20466;-63
2021/03/06 04:29:42;;;;;;;11.13;8.20;;;-2.00;77.70;;;;;;5070178;29;20112;-66
2021/03/06 04:32:14;;;;;;;10.65;7.32;;;-2.00;78.30;;;;;;5071031;29;20681;-66
2021/03/06 04:34:46;;;;;;;8.90;6.47;;;-2.00;78.90;;;;;;5069574;29;20048;-66
2021/03/06 04:37:17;;;;;;;10.60;7.25;;;-2.10;79.00;;;;;;5070974;29;20135;-66
2021/03/06 04:39:49;;;;;;;8.70;6.30;;;-2.10;79.60;;;;;;5072377;29;20072;-66
2021/03/06 04:42:20;;;;;;;9.43;6.30;;;-2.10;79.80;;;;;;5075324;29;20120;-66
2021/03/06 04:44:53;;;;;;;10.20;6.85;;;-2.10;80.10;;;;;;5076101;29;20097;-66
2021/03/06 04:47:24;;;;;;;9.90;7.13;;;-2.10;80.50;;;;;;5073644;29;20131;-66
2021/03/06 04:49:56;;;;;;;9.63;6.93;;;-2.10;80.60;;;;;;5071221;29;20040;-66
2021/03/06 04:52:27;;;;;;;10.65;7.30;;;-2.10;80.70;;;;;;5072062;29;20120;-65
2021/03/06 04:54:59;;;;;;;11.35;7.25;;;-2.00;80.30;;;;;;5072844;29;20096;-65
2021/03/06 04:57:30;;;;;;;10.25;6.68;;;-2.00;80.10;;;;;;5071216;29;20056;-66
2021/03/06 05:00:06;;;;;;;10.35;6.95;;;-1.90;80.20;;;;;;5074449;29;20044;-67
2021/03/06 05:02:37;;;;;;;9.00;6.53;;;-1.90;79.80;;;;;;5071864;29;20610;-66
2021/03/06 05:05:09;;;;;;;9.68;6.25;;;-1.80;79.90;;;;;;5067706;29;20147;-65
2021/03/06 05:07:41;;;;;;;9.57;6.78;;;-1.80;80.00;;;;;;5075217;29;20135;-66
2021/03/06 05:10:12;;;;;;;9.38;6.78;;;-1.80;78.90;;;;;;5073877;29;20513;-67
2021/03/06 05:12:43;;;;;;;8.90;6.47;;;-1.80;78.90;;;;;;5072809;29;20028;-66
2021/03/06 05:15:15;;;;;;;8.32;6.15;;;-1.80;78.90;;;;;;5070030;29;20064;-67
2021/03/06 05:17:46;;;;;;;9.90;7.30;;;-1.70;78.80;;;;;;5069317;29;20549;-65
2021/03/06 05:20:18;;;;;;;12.25;8.45;;;-1.70;78.70;;;;;;5072175;29;20383;-64
2021/03/06 05:22:49;;;;;;;11.27;8.20;;;-1.60;79.10;;;;;;5072754;29;20052;-64
2021/03/06 05:25:21;;;;;;;10.27;7.57;;;-1.60;80.00;;;;;;5075180;29;20055;-65
2021/03/06 05:27:53;;;;;;;11.60;8.23;;;-1.60;78.80;;;;;;5074847;29;20036;-66
2021/03/06 05:30:24;;;;;;;11.77;8.38;;;-1.70;78.70;;;;;;5067687;29;20151;-64
2021/03/06 05:32:56;;;;;;;11.48;8.48;;;-1.70;79.20;;;;;;5071334;29;20044;-64
2021/03/06 05:35:29;;;;;;;12.68;8.70;;;-1.90;79.90;;;;;;5074997;29;20032;-63
2021/03/06 05:38:00;;;;;;;12.13;8.70;;;-1.90;80.10;;;;;;5073705;29;20851;-64
2021/03/06 05:40:37;;;;;;;13.07;9.30;;;-2.00;80.70;;;;;;5067431;29;20044;-64
2021/03/06 05:43:09;;;;;;;11.93;8.95;;;-2.10;80.70;;;;;;5067713;29;20044;-64
2021/03/06 05:45:45;;;;;;;12.40;8.95;;;-2.10;80.60;;;;;;5063937;29;20126;-64
2021/03/06 05:48:18;;;;;;;12.35;9.20;;;-2.10;80.30;;;;;;5084259;29;20080;-64
2021/03/06 05:50:51;;;;;;;11.95;8.63;;;-2.10;80.90;;;;;;5074767;29;20047;-64
2021/03/06 05:53:25;;;;;;;11.43;8.25;;;-2.00;79.80;;;;;;5066338;29;20036;-65
2021/03/06 05:55:59;;;;;;;11.88;9.02;;;-1.90;79.40;;;;;;5068428;29;20127;-67
2021/03/06 05:58:35;;;;;;;13.32;9.13;;;-1.80;78.90;;;;;;5066951;29;20053;-66
2021/03/06 06:01:07;;;;;;;12.57;8.85;;;-1.70;79.10;;;;;;5067795;29;20706;-65
2021/03/06 06:03:40;;;;;;;11.38;8.45;;;-1.60;78.80;;;;;;5069994;29;20044;-65
2021/03/06 06:06:13;;;;;;;12.57;9.43;;;-1.50;78.40;;;;;;5068577;29;20131;-65
2021/03/06 06:08:45;;;;;;;11.65;8.05;;;-1.50;78.00;;;;;;5063395;29;20107;-66
2021/03/06 06:11:16;;;;;;;11.85;8.55;;;-1.50;77.60;;;;;;5069908;29;20056;-65
2021/03/06 06:13:48;;;;;;;13.07;9.18;;;-1.40;77.50;;;;;;5071728;29;20071;-66
2021/03/06 06:16:20;;;;;;;11.90;8.80;;;-1.40;77.50;;;;;;5069423;29;20064;-65
2021/03/06 06:18:52;;;;;;;12.88;9.50;;;-1.40;77.80;;;;;;5063838;29;20064;-67
2021/03/06 06:21:41;;;;;;;11.95;8.77;;;-1.40;77.50;;;;;;5069768;29;20115;-64
2021/03/06 06:24:18;;;;;;;12.23;9.07;;;-1.30;77.30;;;;;;5076984;29;20446;-65
2021/03/06 06:26:55;;;;;;;12.15;9.02;;;-1.30;77.80;;;;;;5074877;29;20084;-65
2021/03/06 06:29:41;;;;;;;13.43;8.85;;;-1.30;77.50;;;;;;5078775;29;20107;-66
2021/03/06 06:32:15;;;;;;;12.13;8.43;;;-1.20;77.30;;;;;;5073154;29;20044;-65
2021/03/06 06:35:03;;;;;;;11.85;8.98;;;-1.00;77.10;;;;;;5068311;29;20071;-65
2021/03/06 06:37:35;;;;;;;11.00;8.43;;;-0.90;76.80;;;;;;5076101;29;20064;-65
2021/03/06 06:40:21;;;;;;;12.27;9.10;;;-0.80;77.40;;;;;;5075988;29;20206;-65
2021/03/06 06:42:53;;;;;;;11.10;8.27;;;-0.70;76.70;;;;;;5077283;29;20576;-64
2021/03/06 06:45:35;;;;;;;12.45;8.88;;;-0.60;76.40;;;;;;5078012;29;20068;-64
2021/03/06 06:48:10;;;;;;;12.27;9.32;;;-0.50;76.20;;;;;;5067132;29;20055;-65
2021/03/06 06:50:42;;;;;;;12.45;8.93;;;-0.40;75.90;;;;;;5066946;29;20396;-65
2021/03/06 06:53:27;;;;;;;10.65;8.68;;;-0.30;74.90;;;;;;5073065;29;20426;-65
2021/03/06 06:55:58;;;;;;;10.00;7.97;;;-0.20;75.20;;;;;;5072231;29;20104;-66
2021/03/06 06:58:46;;;;;;;10.82;8.70;;;-0.10;74.50;;;;;;5070355;29;20044;-68
2021/03/06 07:01:37;;;;;;;12.73;8.95;;;0.10;74.70;;;;;;5070110;29;20154;-66
2021/03/06 07:04:10;;;;;;;11.85;9.07;;;0.30;74.40;;;;;;5073928;29;20050;-65
2021/03/06 07:06:57;;;;;;;9.68;8.05;;;0.40;73.60;;;;;;5072920;29;20048;-66
2021/03/06 07:09:29;;;;;;;10.23;7.80;;;0.50;73.50;;;;;;5071330;29;20076;-67
2021/03/06 07:12:25;;;;;;;10.43;8.07;;;0.60;72.20;;;;;;5070460;29;20056;-65
2021/03/06 07:14:56;;;;;;;11.32;8.80;;;0.70;70.80;;;;;;5063567;29;20123;-67
2021/03/06 07:17:39;;;;;;;10.05;8.13;;;0.80;70.50;;;;;;5067445;29;20663;-67
2021/03/06 07:20:33;;;;;;;10.10;8.07;;;0.90;71.50;;;;;;5067192;29;20040;-65
2021/03/06 07:23:13;;;;;;;10.20;8.05;;;0.90;70.70;;;;;;5071408;29;20092;-66
2021/03/06 07:25:50;;;;;;;10.90;8.05;;;0.90;71.00;;;;;;5068444;29;20044;-66
2021/03/06 07:28:24;;;;;;;11.70;9.18;;;1.00;71.00;;;;;;5066044;29;20046;-66
2021/03/06 07:30:57;;;;;;;13.70;9.20;;;1.00;70.60;;;;;;5067443;29;20817;-66
2021/03/06 07:33:29;;;;;;;12.60;9.27;;;1.10;70.30;;;;;;5067725;29;20169;-66
2021/03/06 07:36:02;;;;;;;11.98;8.63;;;1.20;69.90;;;;;;5067237;29;20043;-66
2021/03/06 07:38:34;;;;;;;11.05;8.95;;;1.20;68.70;;;;;;5065200;29;20179;-67
2021/03/06 07:41:07;;;;;;;12.30;9.98;;;1.30;69.40;;;;;;5069542;29;20058;-67
2021/03/06 07:43:41;;;;;;;12.40;9.32;;;1.30;70.10;;;;;;5064252;29;20828;-66
2021/03/06 07:46:14;;;;;;;10.98;9.07;;;1.30;70.00;;;;;;5059603;29;20802;-66
2021/03/06 07:48:52;;;;;;;12.15;9.90;;;1.40;69.50;;;;;;5070370;29;20123;-67
2021/03/06 07:51:26;;;;;;;10.80;9.07;;;1.40;69.40;;;;;;5070027;29;20048;-66
2021/03/06 07:53:58;;;;;;;12.45;8.88;;;1.50;69.60;;;;;;5071932;29;20040;-66
2021/03/06 07:56:30;;;;;;;11.15;8.73;;;1.70;69.00;;;;;;5072382;29;20115;-66
2021/03/06 07:59:02;;;;;;;10.88;8.85;;;1.80;68.40;;;;;;5070852;29;20065;-67
2021/03/06 08:01:35;;;;;;;9.88;8.18;;;1.90;68.20;;;;;;5072426;29;20040;-67
2021/03/06 08:04:37;;;;;;;11.60;8.18;;;2.00;68.30;;;;;;5072495;29;20417;-67
2021/03/06 08:07:13;;;;;;;10.43;8.25;;;2.10;66.70;;;;;;5071331;29;20048;-65
2021/03/06 08:10:01;;;;;;;12.68;9.90;;;2.00;66.90;;;;;;5072904;29;20048;-66
2021/03/06 08:12:37;;;;;;;10.40;8.27;;;1.90;67.40;;;;;;5072221;29;20052;-68
2021/03/06 08:15:29;;;;;;;11.50;8.88;;;1.90;67.00;;;;;;5069351;29;20565;-68
2021/03/06 08:18:01;;;;;;;11.50;9.32;;;1.90;68.00;;;;;;5063066;29;20399;-67
2021/03/06 08:20:35;;;;;;;11.38;9.30;;;1.80;67.50;;;;;;5067351;29;20173;-69
2021/03/06 08:23:23;;;;;;;11.85;8.77;;;1.80;67.50;;;;;;5066529;29;20111;-68
2021/03/06 08:26:27;;;;;;;12.18;9.20;;;1.80;67.50;;;;;;5062685;29;20071;-66
2021/03/06 08:29:25;;;;;;;10.82;8.65;;;1.70;66.40;;;;;;5047622;29;20143;-66
2021/03/06 08:32:07;;;;;;;11.50;8.63;;;1.70;67.40;;;;;;5069752;29;20056;-66
2021/03/06 08:34:49;;;;;;;11.07;8.40;;;1.80;67.90;;;;;;5065680;29;20052;-67
2021/03/06 08:37:21;;;;;;;10.50;8.27;;;2.00;67.00;;;;;;5081399;29;20057;-66
2021/03/06 08:39:53;;;;;;;11.70;8.32;;;2.00;65.90;;;;;;5068942;29;20528;-66
2021/03/06 08:42:31;;;;;;;10.45;8.05;;;2.00;65.00;;;;;;5060829;29;20526;-68
2021/03/06 08:45:14;;;;;;;9.70;7.88;;;2.10;66.70;;;;;;5066533;29;20047;-68
2021/03/06 08:47:51;;;;;;;8.55;7.22;;;2.20;66.00;;;;;;5062829;29;20132;-68
2021/03/06 08:50:24;;;;;;;10.77;8.45;;;2.30;66.00;;;;;;5067122;29;20151;-67
2021/03/06 08:53:07;;;;;;;10.68;8.95;;;2.30;65.50;;;;;;5082350;29;20104;-68
2021/03/06 08:55:41;;;;;;;11.02;8.90;;;2.30;65.60;;;;;;5062705;29;20075;-67
2021/03/06 08:58:21;;;;;;;10.70;8.98;;;2.40;66.50;;;;;;5072983;29;20047;-67
2021/03/06 09:00:55;;;;;;;11.35;9.27;;;2.40;64.90;;;;;;5066806;29;21068;-66
2021/03/06 09:03:29;;;;;;;11.82;8.75;;;2.50;65.80;;;;;;5058319;29;20048;-69
2021/03/06 09:06:01;;;;;;;10.82;9.55;;;2.50;66.30;;;;;;5070378;29;20573;-67
2021/03/06 09:08:32;;;;;;;11.40;9.52;;;2.50;65.40;;;;;;5072981;29;20052;-68
2021/03/06 09:11:04;;;;;;;11.30;9.32;;;2.50;66.50;;;;;;5069557;29;20181;-67
2021/03/06 09:13:36;;;;;;;10.75;8.63;;;2.50;66.00;;;;;;5072067;29;20103;-66
2021/03/06 09:16:11;;;;;;;10.32;8.65;;;2.60;66.10;;;;;;5069486;29;20044;-66
2021/03/06 09:18:42;;;;;;;11.43;9.63;;;2.80;65.70;;;;;;5064755;29;20044;-66
2021/03/06 09:21:23;;;;;;;9.32;8.13;;;2.90;65.00;;;;;;5067484;29;20080;-68
2021/03/06 09:23:54;;;;;;;10.18;8.70;;;2.90;64.50;;;;;;5071792;29;20146;-65
2021/03/06 09:26:26;;;;;;;10.77;8.82;;;3.10;64.30;;;;;;5065484;29;20049;-65
2021/03/06 09:28:57;;;;;;;10.98;9.10;;;3.10;62.60;;;;;;5070227;29;20127;-67
2021/03/06 09:31:33;;;;;;;11.05;8.85;;;3.00;64.20;;;;;;5067268;29;20043;-67
2021/03/06 09:34:05;;;;;;;9.23;8.15;;;3.00;64.90;;;;;;5065356;29;20036;-67
2021/03/06 09:36:37;;;;;;;9.82;8.45;;;3.40;64.30;;;;;;5065891;29;20096;-66
2021/03/06 09:39:09;;;;;;;10.63;8.95;;;3.70;63.30;;;;;;5066200;29;20056;-67
2021/03/06 09:41:42;;;;;;;10.57;9.15;;;4.00;62.40;;;;;;5068733;29;20885;-67
2021/03/06 09:44:15;;;;;;;10.57;9.30;;;4.20;61.00;;;;;;5069271;29;20050;-66
2021/03/06 09:46:47;;;;;;;10.23;8.82;;;4.50;61.20;;;;;;5072499;29;20048;-67
2021/03/06 09:49:18;;;;;;;11.20;9.50;;;4.70;59.40;;;;;;5070366;29;20052;-68
2021/03/06 09:51:52;;;;;;;10.55;8.98;;;4.80;58.80;;;;;;5067644;29;20106;-66
2021/03/06 09:54:25;;;;;;;10.27;8.70;;;5.00;58.60;;;;;;5072056;29;20056;-66
2021/03/06 09:57:01;;;;;;;10.10;8.93;;;5.00;58.70;;;;;;5069749;29;20044;-68
2021/03/06 09:59:37;;;;;;;10.70;9.25;;;5.10;56.90;;;;;;5073745;29;20052;-66
2021/03/06 10:02:14;;;;;;;11.38;9.25;;;5.20;58.50;;;;;;5070176;29;20128;-65
2021/03/06 10:04:46;;;;;;;16.08;9.88;;;5.30;57.50;;;;;;5074613;29;20059;-67
2021/03/06 10:07:20;;;;;;;10.00;8.98;;;5.40;58.10;;;;;;5072489;29;20056;-68
2021/03/06 10:09:53;;;;;;;10.13;8.68;;;5.50;56.70;;;;;;5069289;29;20056;-65
2021/03/06 10:12:24;;;;;;;11.15;9.52;;;5.50;56.70;;;;;;5067796;29;20044;-66
2021/03/06 10:14:56;;;;;;;10.40;9.10;;;5.50;56.50;;;;;;5073227;29;20044;-65
2021/03/06 10:17:27;;;;;;;10.35;8.80;;;5.50;57.00;;;;;;5069443;29;20448;-66
2021/03/06 10:20:00;;;;;;;11.45;10.15;;;5.50;57.50;;;;;;5067875;29;20048;-66
2021/03/06 10:22:46;;;;;;;11.25;10.05;;;5.70;56.80;;;;;;5069214;29;20056;-66
2021/03/06 10:25:27;;;;;;;10.43;9.38;;;5.70;56.40;;;;;;5072764;29;20123;-67
2021/03/06 10:28:08;;;;;;;10.82;9.38;;;5.70;56.60;;;;;;5074545;29;20067;-65
2021/03/06 10:30:43;;;;;;;10.88;9.63;;;5.90;56.20;;;;;;5071014;29;20629;-67
2021/03/06 10:33:22;;;;;;;11.65;9.88;;;5.90;56.30;;;;;;5070608;29;20131;-66
2021/03/06 10:35:56;;;;;;;9.93;8.87;;;6.00;56.00;;;;;;5071887;29;20052;-65
2021/03/06 10:38:29;;;;;;;10.02;9.02;;;6.20;54.80;;;;;;5070575;29;20226;-66
2021/03/06 10:41:02;;;;;;;10.10;9.00;;;6.10;54.80;;;;;;5072557;29;20054;-66
2021/03/06 10:43:40;;;;;;;10.95;9.75;;;5.90;56.10;;;;;;5071437;29;20104;-67
2021/03/06 10:46:13;;;;;;;10.40;9.30;;;6.10;56.00;;;;;;5074708;29;20148;-66
2021/03/06 10:48:56;;;;;;;11.52;9.45;;;6.20;55.60;;;;;;5073270;29;20857;-66
2021/03/06 10:51:54;;;;;;;11.48;10.27;;;6.30;55.60;;;;;;5069421;29;20146;-66
2021/03/06 10:54:26;;;;;;;11.48;9.50;;;6.40;55.80;;;;;;5069619;29;20048;-67
2021/03/06 10:57:05;;;;;;;10.52;9.40;;;6.40;56.20;;;;;;5068239;29;20166;-67
2021/03/06 10:59:37;;;;;;;12.05;9.77;;;6.50;55.50;;;;;;5065389;29;20143;-65
2021/03/06 11:02:26;;;;;;;10.73;9.43;;;6.50;55.20;;;;;;5067882;29;20056;-67
2021/03/06 11:05:19;;;;;;;11.23;10.13;;;6.60;55.20;;;;;;5065691;29;20055;-66
2021/03/06 11:07:51;;;;;;;11.40;10.02;;;6.50;53.70;;;;;;5061625;29;20737;-67
2021/03/06 11:10:27;;;;;;;11.18;9.90;;;6.40;54.70;;;;;;5069882;29;20111;-66
2021/03/06 11:13:01;;;;;;;11.20;9.82;;;6.50;55.20;;;;;;5067557;29;20044;-67
2021/03/06 11:15:34;;;;;;;10.65;9.45;;;6.60;55.20;;;;;;5070754;29;20529;-67
2021/03/06 11:18:07;;;;;;;11.50;9.88;;;6.60;55.00;;;;;;5075371;29;21076;-67
2021/03/06 11:20:39;;;;;;;11.07;9.70;;;6.50;56.00;;;;;;5055809;29;20048;-67
2021/03/06 11:23:10;;;;;;;13.02;10.13;;;6.40;56.40;;;;;;5075131;29;20068;-66
2021/03/06 11:25:42;;;;;;;11.05;9.95;;;6.40;56.20;;;;;;5074135;29;20525;-66
2021/03/06 11:28:15;;;;;;;11.52;10.32;;;6.40;55.70;;;;;;5076629;29;20051;-67
2021/03/06 11:30:48;;;;;;;11.23;10.13;;;6.50;55.70;;;;;;5072519;29;20598;-70
2021/03/06 11:33:20;;;;;;;11.20;10.00;;;6.60;56.60;;;;;;5066273;29;20620;-66
2021/03/06 11:35:52;;;;;;;11.82;10.35;;;6.80;54.50;;;;;;5071201;29;20755;-68
2021/03/06 11:38:23;;;;;;;11.80;10.60;;;6.80;55.70;;;;;;5072584;29;20048;-66
2021/03/06 11:40:55;;;;;;;11.45;10.30;;;6.90;53.30;;;;;;5073173;29;20073;-66
2021/03/06 11:43:27;;;;;;;11.55;10.35;;;6.50;56.40;;;;;;5072057;29;20120;-66
2021/03/06 11:45:59;;;;;;;11.55;10.23;;;6.40;55.50;;;;;;5067469;29;20134;-68
2021/03/06 11:48:30;;;;;;;11.45;10.18;;;6.30;55.30;;;;;;5061320;29;20044;-65
2021/03/06 11:51:03;;;;;;;11.73;10.52;;;6.20;55.50;;;;;;5065616;29;20418;-67
2021/03/06 11:53:34;;;;;;;11.45;10.25;;;6.30;56.00;;;;;;5064135;29;20040;-65
2021/03/06 11:56:06;;;;;;;12.02;10.57;;;6.40;56.10;;;;;;5065958;29;20048;-65
2021/03/06 11:58:37;;;;;;;11.68;10.48;;;6.40;56.30;;;;;;5065716;29;20084;-65
2021/03/06 12:01:09;;;;;;;11.73;10.52;;;6.40;56.10;;;;;;5068635;29;20764;-65
2021/03/06 12:03:40;;;;;;;11.63;10.43;;;6.20;57.20;;;;;;5064447;29;20443;-65
2021/03/06 12:06:12;;;;;;;11.98;10.68;;;6.30;57.40;;;;;;5066131;29;20049;-66
2021/03/06 12:08:43;;;;;;;11.85;10.52;;;6.40;57.50;;;;;;5065837;29;20068;-65
2021/03/06 12:11:16;;;;;;;11.80;10.60;;;6.50;57.10;;;;;;5062873;29;20124;-65
2021/03/06 12:13:47;;;;;;;12.05;10.75;;;6.70;56.60;;;;;;5062841;29;20072;-67
2021/03/06 12:16:18;;;;;;;11.43;10.23;;;6.70;57.10;;;;;;5064033;29;20143;-67
2021/03/06 12:18:50;;;;;;;14.32;10.45;;;6.70;56.20;;;;;;5063551;29;20049;-65
2021/03/06 12:21:22;;;;;;;11.13;9.93;;;6.60;56.10;;;;;;5079344;29;20063;-65
2021/03/06 12:23:53;;;;;;;11.57;10.38;;;6.50;57.10;;;;;;5071755;29;20060;-65
2021/03/06 12:26:25;;;;;;;12.32;11.00;;;6.60;56.70;;;;;;5074097;29;20056;-65
2021/03/06 12:28:57;;;;;;;12.05;10.75;;;6.70;57.20;;;;;;5074208;29;20044;-65
2021/03/06 12:31:28;;;;;;;12.80;11.10;;;6.60;55.70;;;;;;5071160;29;20323;-65
2021/03/06 12:34:00;;;;;;;13.48;11.07;;;6.60;55.70;;;;;;5073025;29;20087;-67
2021/03/06 12:36:32;;;;;;;11.90;10.60;;;6.30;57.10;;;;;;5074172;29;20045;-67
2021/03/06 12:39:05;;;;;;;12.65;11.35;;;6.30;56.00;;;;;;5074891;29;20111;-67
2021/03/06 12:41:37;;;;;;;12.38;10.85;;;6.20;56.70;;;;;;5073336;29;20135;-65
2021/03/06 12:44:09;;;;;;;12.32;10.90;;;6.30;57.00;;;;;;5076162;29;20131;-67
2021/03/06 12:46:40;;;;;;;13.20;10.30;;;6.10;57.40;;;;;;5073891;29;20052;-66
2021/03/06 12:49:12;;;;;;;11.52;10.32;;;6.00;57.00;;;;;;5076898;29;20454;-65
2021/03/06 12:51:44;;;;;;;12.02;10.73;;;5.90;57.60;;;;;;5074678;29;20048;-65
2021/03/06 12:54:15;;;;;;;12.02;10.73;;;5.90;58.00;;;;;;5076856;29;20665;-64
2021/03/06 12:56:46;;;;;;;11.15;9.98;;;6.10;57.90;;;;;;5069016;29;20043;-66
2021/03/06 12:59:18;;;;;;;12.23;10.57;;;6.10;57.60;;;;;;5065948;29;20456;-67
2021/03/06 13:01:49;;;;;;;13.52;9.68;;;6.10;57.00;;;;;;5063721;29;20051;-65
2021/03/06 13:04:21;;;;;;;13.13;11.00;;;6.10;57.50;;;;;;5068288;29;20058;-65
2021/03/06 13:06:53;;;;;;;11.88;10.57;;;6.10;58.10;;;;;;5073372;29;20040;-66
2021/03/06 13:09:24;;;;;;;12.35;10.32;;;6.20;57.40;;;;;;5074572;29;20116;-64
2021/03/06 13:11:56;;;;;;;12.10;10.68;;;6.20;56.80;;;;;;5071872;29;20123;-65
2021/03/06 13:14:27;;;;;;;12.13;10.13;;;6.20;57.00;;;;;;5075986;29;20748;-65
2021/03/06 13:16:58;;;;;;;12.30;10.98;;;6.10;57.10;;;;;;5060491;29;20131;-65
2021/03/06 13:19:30;;;;;;;12.65;10.85;;;6.20;57.90;;;;;;5065955;29;20426;-64
2021/03/06 13:22:02;;;;;;;12.75;10.82;;;6.40;57.20;;;;;;5062099;29;20048;-68
2021/03/06 13:24:33;;;;;;;11.55;10.07;;;6.50;56.50;;;;;;5060000;29;20072;-65